createdAt,value
2022-11-02T00:00:41.104Z,39.40
2022-11-02T00:03:08.104Z,39.26
2022-11-02T00:05:35.084Z,39.24
2022-11-02T00:08:01.375Z,39.37
2022-11-02T00:10:30.202Z,39.33
2022-11-02T00:12:58.393Z,39.14
2022-11-02T00:15:27.030Z,39.16
2022-11-02T00:17:55.928Z,39.38
2022-11-02T00:20:22.483Z,39.13
2022-11-02T00:22:52.039Z,39.12
2022-11-02T00:25:20.180Z,39.08
2022-11-02T00:27:46.647Z,39.30
2022-11-02T00:30:13.044Z,39.17
2022-11-02T00:32:39.385Z,39.17
2022-11-02T00:35:06.075Z,39.11
2022-11-02T00:39:59.624Z,39.18
2022-11-02T00:42:26.065Z,39.17
2022-11-02T00:44:52.290Z,39.09
2022-11-02T00:47:18.541Z,39.13
2022-11-02T00:49:45.004Z,39.02
2022-11-02T00:52:11.458Z,39.00
2022-11-02T00:54:37.693Z,39.06
2022-11-02T00:57:04.014Z,39.10
2022-11-02T00:59:30.472Z,39.05
2022-11-02T01:01:57.046Z,39.10
2022-11-02T01:04:23.387Z,39.19
2022-11-02T01:06:49.815Z,39.12
2022-11-02T01:09:16.333Z,39.13
2022-11-02T01:11:43.165Z,39.25
2022-11-02T01:14:09.872Z,39.32
2022-11-02T01:16:36.381Z,39.16
2022-11-02T01:19:02.887Z,39.26
2022-11-02T01:21:29.296Z,39.36
2022-11-02T01:26:21.875Z,39.36
2022-11-02T01:28:48.303Z,39.40
2022-11-02T01:31:14.583Z,39.48
2022-11-02T01:33:45.587Z,39.49
2022-11-02T01:36:13.015Z,39.39
2022-11-02T01:38:39.416Z,39.50
2022-11-02T01:41:05.949Z,39.50
2022-11-02T01:43:33.616Z,39.50
2022-11-02T01:46:01.705Z,39.45
2022-11-02T01:48:33.623Z,39.43
2022-11-02T01:51:02.059Z,39.31
2022-11-02T01:53:29.326Z,39.23
2022-11-02T01:55:56.464Z,39.18
2022-11-02T01:58:22.788Z,39.18
2022-11-02T02:00:49.313Z,39.30
2022-11-02T02:03:17.649Z,39.22
2022-11-02T02:06:04.224Z,39.32
2022-11-02T02:08:32.022Z,39.27
2022-11-02T02:10:58.811Z,39.34
2022-11-02T02:13:28.029Z,39.34
2022-11-02T02:16:01.841Z,39.42
2022-11-02T02:18:39.656Z,39.40
2022-11-02T02:21:13.063Z,39.45
2022-11-02T02:24:05.772Z,39.65
2022-11-02T02:26:35.206Z,39.64
2022-11-02T02:29:05.325Z,39.50
2022-11-02T02:31:44.752Z,39.55
2022-11-02T02:34:27.426Z,39.78
2022-11-02T02:37:03.869Z,39.82
2022-11-02T02:39:41.037Z,39.86
2022-11-02T02:42:16.314Z,40.09
2022-11-02T02:44:47.720Z,40.03
2022-11-02T02:47:16.977Z,39.90
2022-11-02T02:49:52.535Z,39.90
2022-11-02T02:52:20.322Z,40.01
2022-11-02T02:54:47.590Z,39.86
2022-11-02T02:57:16.630Z,40.10
2022-11-02T02:59:45.551Z,39.82
2022-11-02T03:02:18.071Z,39.92
2022-11-02T03:04:44.552Z,39.84
2022-11-02T03:07:14.092Z,39.70
2022-11-02T03:09:42.626Z,39.96
2022-11-02T03:12:17.865Z,39.84
2022-11-02T03:14:50.277Z,39.81
2022-11-02T03:17:24.892Z,39.86
2022-11-02T03:20:05.578Z,39.92
2022-11-02T03:22:34.747Z,39.78
2022-11-02T03:25:12.623Z,39.75
2022-11-02T03:27:49.189Z,39.92
2022-11-02T03:30:18.425Z,39.71
2022-11-02T03:33:03.701Z,39.70
2022-11-02T03:35:32.901Z,39.79
2022-11-02T03:38:03.453Z,39.95
2022-11-02T03:40:33.167Z,39.95
2022-11-02T03:43:00.417Z,39.96
2022-11-02T03:45:29.886Z,39.96
2022-11-02T03:48:02.045Z,39.96
2022-11-02T03:50:29.545Z,40.05
2022-11-02T03:53:07.292Z,39.74
2022-11-02T03:55:36.591Z,40.03
2022-11-02T03:58:03.550Z,40.12
2022-11-02T04:00:32.521Z,39.95
2022-11-02T04:03:00.197Z,39.90
2022-11-02T04:05:31.300Z,39.83
2022-11-02T04:08:16.347Z,40.13
2022-11-02T04:11:02.608Z,39.96
2022-11-02T04:13:47.801Z,40.07
2022-11-02T04:16:15.266Z,40.00
2022-11-02T04:19:00.894Z,40.21
2022-11-02T04:21:27.607Z,39.97
2022-11-02T04:24:12.600Z,40.13
2022-11-02T04:26:39.855Z,40.28
2022-11-02T04:29:06.644Z,40.35
2022-11-02T04:31:33.087Z,40.17
2022-11-02T04:34:02.307Z,40.23
2022-11-02T04:36:29.238Z,40.17
2022-11-02T04:38:55.810Z,40.13
2022-11-02T04:41:42.070Z,40.39
2022-11-02T04:44:13.250Z,40.17
2022-11-02T04:46:40.782Z,40.13
2022-11-02T04:49:07.419Z,40.28
2022-11-02T04:51:34.516Z,40.29
2022-11-02T04:54:00.987Z,40.09
2022-11-02T04:56:28.058Z,40.19
2022-11-02T04:58:55.762Z,39.98
2022-11-02T05:01:22.627Z,40.04
2022-11-02T05:03:49.889Z,39.96
2022-11-02T05:06:20.253Z,40.04
2022-11-02T05:08:46.766Z,40.39
2022-11-02T05:11:13.141Z,40.33
2022-11-02T05:13:40.371Z,40.27
2022-11-02T05:16:07.036Z,40.61
2022-11-02T05:18:34.041Z,40.56
2022-11-02T05:21:00.847Z,40.17
2022-11-02T05:23:28.725Z,40.23
2022-11-02T05:26:05.188Z,40.09
2022-11-02T05:28:34.372Z,40.15
2022-11-02T05:31:01.737Z,40.29
2022-11-02T05:33:30.787Z,40.15
2022-11-02T05:35:58.210Z,40.26
2022-11-02T05:38:24.683Z,40.33
2022-11-02T05:40:51.893Z,40.21
2022-11-02T05:43:18.143Z,40.40
2022-11-02T05:45:44.350Z,40.14
2022-11-02T05:48:10.794Z,40.41
2022-11-02T05:50:37.014Z,40.30
2022-11-02T05:53:03.636Z,40.36
2022-11-02T05:55:31.300Z,40.38
2022-11-02T05:57:57.611Z,40.25
2022-11-02T06:00:26.848Z,40.44
2022-11-02T06:02:57.811Z,40.33
2022-11-02T06:05:25.021Z,40.37
2022-11-02T06:07:51.322Z,40.23
2022-11-02T06:10:18.257Z,40.24
2022-11-02T06:12:45.399Z,40.15
2022-11-02T06:15:11.809Z,40.42
2022-11-02T06:17:39.181Z,40.20
2022-11-02T06:20:06.294Z,40.32
2022-11-02T06:22:38.224Z,40.16
2022-11-02T06:25:04.657Z,40.19
2022-11-02T06:27:30.920Z,40.18
2022-11-02T06:29:57.314Z,39.97
2022-11-02T06:32:23.984Z,40.17
2022-11-02T06:34:50.463Z,40.18
2022-11-02T06:37:16.691Z,40.06
2022-11-02T06:39:42.966Z,40.10
2022-11-02T06:42:09.261Z,40.26
2022-11-02T06:44:35.533Z,40.66
2022-11-02T06:47:01.878Z,40.22
2022-11-02T06:49:28.370Z,40.41
2022-11-02T06:51:54.796Z,40.40
2022-11-02T06:54:21.217Z,40.40
2022-11-02T06:56:47.530Z,40.62
2022-11-02T06:59:13.816Z,40.57
2022-11-02T07:01:40.408Z,40.42
2022-11-02T07:04:06.802Z,40.47
2022-11-02T07:06:33.070Z,40.50
2022-11-02T07:08:59.331Z,40.39
2022-11-02T07:11:25.603Z,40.46
2022-11-02T07:13:51.892Z,40.36
2022-11-02T07:16:18.189Z,40.29
2022-11-02T07:18:44.494Z,40.20
2022-11-02T07:21:11.851Z,40.29
2022-11-02T07:23:38.531Z,40.33
2022-11-02T07:26:07.008Z,40.25
2022-11-02T07:28:33.460Z,40.26
2022-11-02T07:30:59.675Z,40.29
2022-11-02T07:33:25.920Z,40.25
2022-11-02T07:35:52.232Z,40.14
2022-11-02T07:38:18.693Z,40.07
2022-11-02T07:40:48.488Z,39.92
2022-11-02T07:43:14.724Z,39.85
2022-11-02T07:45:41.146Z,39.96
2022-11-02T07:48:07.459Z,39.97
2022-11-02T07:50:33.823Z,40.03
2022-11-02T07:53:00.607Z,39.98
2022-11-02T07:55:28.146Z,39.92
2022-11-02T07:57:55.510Z,39.88
2022-11-02T08:00:21.982Z,39.78
2022-11-02T08:02:48.494Z,39.90
2022-11-02T08:05:14.976Z,39.72
2022-11-02T08:07:42.799Z,39.82
2022-11-02T08:10:09.507Z,39.85
2022-11-02T08:12:35.718Z,39.79
2022-11-02T08:15:07.203Z,39.81
2022-11-02T08:17:33.857Z,39.40
2022-11-02T08:20:00.172Z,39.86
2022-11-02T08:22:26.408Z,39.78
2022-11-02T08:24:52.672Z,39.73
2022-11-02T08:27:18.935Z,39.42
2022-11-02T08:29:45.247Z,39.67
2022-11-02T08:32:12.544Z,39.47
2022-11-02T08:34:38.854Z,39.49
2022-11-02T08:37:06.650Z,39.62
2022-11-02T08:39:35.210Z,39.55
2022-11-02T08:42:01.617Z,39.44
2022-11-02T08:44:27.911Z,39.49
2022-11-02T08:49:27.145Z,39.81
2022-11-02T08:51:53.439Z,38.88
2022-11-02T08:54:19.678Z,39.12
2022-11-02T08:56:46.115Z,39.29
2022-11-02T08:59:12.660Z,39.45
2022-11-02T09:01:39.291Z,39.26
2022-11-02T09:04:05.651Z,38.98
2022-11-02T09:06:31.919Z,39.03
2022-11-02T09:09:00.627Z,39.01
2022-11-02T09:11:26.952Z,38.65
2022-11-02T09:13:56.912Z,39.16
2022-11-02T09:16:23.720Z,38.98
2022-11-02T09:18:50.173Z,39.30
2022-11-02T09:21:16.407Z,39.32
2022-11-02T09:23:42.940Z,39.10
2022-11-02T09:26:09.356Z,39.09
2022-11-02T09:28:35.671Z,39.13
2022-11-02T09:31:06.019Z,39.18
2022-11-02T09:33:36.151Z,38.91
2022-11-02T09:36:04.255Z,38.76
2022-11-02T09:38:31.007Z,38.73
2022-11-02T09:41:12.622Z,39.08
2022-11-02T09:43:45.615Z,38.87
2022-11-02T09:46:31.965Z,38.67
2022-11-02T09:51:33.062Z,38.29
2022-11-02T09:54:06.099Z,38.53
2022-11-02T09:56:33.377Z,38.49
2022-11-02T09:59:01.900Z,38.49
2022-11-02T10:01:42.239Z,38.29
2022-11-02T10:04:27.470Z,38.58
2022-11-02T10:07:02.840Z,38.63
2022-11-02T10:09:37.387Z,38.44
2022-11-02T10:12:14.420Z,38.56
2022-11-02T10:14:53.042Z,38.69
2022-11-02T10:17:24.578Z,38.59
2022-11-02T10:19:59.257Z,38.87
2022-11-02T10:22:28.657Z,38.83
2022-11-02T10:24:57.214Z,38.56
2022-11-02T10:27:27.258Z,38.55
2022-11-02T10:30:14.232Z,38.57
2022-11-02T10:32:41.134Z,38.55
2022-11-02T10:35:45.858Z,38.71
2022-11-02T10:38:19.879Z,38.80
2022-11-02T10:41:04.073Z,38.70
2022-11-02T10:43:52.075Z,38.73
2022-11-02T10:46:24.493Z,38.45
2022-11-02T10:49:09.568Z,38.23
2022-11-02T10:51:35.844Z,38.21
2022-11-02T10:54:02.179Z,38.31
2022-11-02T10:56:32.691Z,38.02
2022-11-02T10:58:58.961Z,38.35
2022-11-02T11:01:26.147Z,36.63
2022-11-02T11:04:03.520Z,37.12
2022-11-02T11:06:40.179Z,37.54
2022-11-02T11:09:25.980Z,37.18
2022-11-02T11:11:56.903Z,37.58
2022-11-02T11:20:07.446Z,37.42
2022-11-02T11:22:38.054Z,37.13
2022-11-02T11:25:13.142Z,37.25
2022-11-02T11:27:56.517Z,36.72
2022-11-02T11:30:46.619Z,36.86
2022-11-02T11:33:16.902Z,36.85
2022-11-02T11:35:47.929Z,36.34
2022-11-02T11:38:19.456Z,37.22
2022-11-02T11:40:49.119Z,36.77
2022-11-02T11:43:17.585Z,37.14
2022-11-02T11:46:06.431Z,37.25
2022-11-02T11:48:36.015Z,36.46
2022-11-02T11:51:03.750Z,36.68
2022-11-02T11:53:30.778Z,36.87
2022-11-02T11:55:59.932Z,36.55
2022-11-02T11:58:30.276Z,36.79
2022-11-02T12:01:11.969Z,36.80
2022-11-02T12:04:00.356Z,36.58
2022-11-02T12:06:46.409Z,36.44
2022-11-02T12:09:19.067Z,36.23
2022-11-02T12:11:54.199Z,36.24
2022-11-02T12:14:30.051Z,36.01
2022-11-02T12:17:15.244Z,35.87
2022-11-02T12:19:52.958Z,35.26
2022-11-02T12:22:29.377Z,35.71
2022-11-02T12:25:01.886Z,35.70
2022-11-02T12:27:47.520Z,35.68
2022-11-02T12:30:42.981Z,35.69
2022-11-02T12:33:15.248Z,35.69
2022-11-02T12:35:53.089Z,35.44
2022-11-02T12:38:33.612Z,35.43
2022-11-02T12:41:04.582Z,35.48
2022-11-02T12:43:33.757Z,35.57
2022-11-02T12:46:02.079Z,35.32
2022-11-02T12:48:31.332Z,34.59
2022-11-02T12:51:00.644Z,35.74
2022-11-02T12:53:45.929Z,35.76
2022-11-02T12:56:16.726Z,35.74
2022-11-02T12:58:44.344Z,35.75
2022-11-02T13:01:14.839Z,35.64
2022-11-02T13:03:49.212Z,35.16
2022-11-02T13:06:19.245Z,35.37
2022-11-02T13:08:45.671Z,35.44
2022-11-02T13:11:23.230Z,35.63
2022-11-02T13:13:55.640Z,35.40
2022-11-02T13:16:28.136Z,35.46
2022-11-02T13:18:55.043Z,35.60
2022-11-02T13:21:30.783Z,35.54
2022-11-02T13:23:58.350Z,35.48
2022-11-02T13:26:27.682Z,35.78
2022-11-02T13:28:56.014Z,36.16
2022-11-02T13:31:29.452Z,36.24
2022-11-02T13:34:00.163Z,35.48
2022-11-02T13:36:26.672Z,35.66
2022-11-02T13:38:55.811Z,35.07
2022-11-02T13:41:33.277Z,35.52
2022-11-02T13:44:18.405Z,35.68
2022-11-02T13:46:44.634Z,35.63
2022-11-02T13:49:14.029Z,35.71
2022-11-02T13:51:49.024Z,35.48
2022-11-02T13:54:19.741Z,35.34
2022-11-02T13:56:47.607Z,35.64
2022-11-02T13:59:22.270Z,35.63
2022-11-02T14:01:49.282Z,35.78
2022-11-02T14:04:16.063Z,35.57
2022-11-02T14:06:54.726Z,35.42
2022-11-02T14:09:23.671Z,35.56
2022-11-02T14:11:49.969Z,35.54
2022-11-02T14:14:18.763Z,35.64
2022-11-02T14:16:48.111Z,35.74
2022-11-02T14:19:19.555Z,34.70
2022-11-02T14:21:49.963Z,35.00
2022-11-02T14:24:34.577Z,35.09
2022-11-02T14:27:24.036Z,35.13
2022-11-02T14:29:51.670Z,35.66
2022-11-02T14:32:20.981Z,35.49
2022-11-02T14:35:05.223Z,35.63
2022-11-02T14:37:31.634Z,35.12
2022-11-02T14:40:04.782Z,35.25
2022-11-02T14:42:30.984Z,35.38
2022-11-02T14:45:15.496Z,35.27
2022-11-02T14:47:42.011Z,35.14
2022-11-02T14:50:20.001Z,35.08
2022-11-02T14:52:55.667Z,35.19
2022-11-02T14:55:23.716Z,35.38
2022-11-02T14:57:54.036Z,35.38
2022-11-02T15:00:21.024Z,35.13
2022-11-02T15:02:47.899Z,35.04
2022-11-02T15:05:23.564Z,35.12
2022-11-02T15:07:55.453Z,35.20
2022-11-02T15:10:21.784Z,35.21
2022-11-02T15:12:48.414Z,35.38
2022-11-02T15:15:37.014Z,35.28
2022-11-02T15:18:23.597Z,35.48
2022-11-02T15:21:10.163Z,35.31
2022-11-02T15:23:55.274Z,35.49
2022-11-02T15:26:42.838Z,35.30
2022-11-02T15:29:36.792Z,35.37
2022-11-02T15:32:04.889Z,35.36
2022-11-02T15:34:40.329Z,35.42
2022-11-02T15:37:07.404Z,35.40
2022-11-02T15:39:33.920Z,35.59
2022-11-02T15:42:05.327Z,35.49
2022-11-02T15:44:37.873Z,35.46
2022-11-02T15:47:14.697Z,35.60
2022-11-02T15:49:59.494Z,35.77
2022-11-02T15:52:29.103Z,35.80
2022-11-02T15:55:02.432Z,35.82
2022-11-02T15:58:00.861Z,35.88
2022-11-02T16:00:33.012Z,35.70
2022-11-02T16:03:01.415Z,35.83
2022-11-02T16:05:29.628Z,35.98
2022-11-02T16:08:10.382Z,35.97
2022-11-02T16:10:36.990Z,36.04
2022-11-02T16:13:14.108Z,36.10
2022-11-02T16:15:42.508Z,36.15
2022-11-02T16:18:29.480Z,36.05
2022-11-02T16:21:02.540Z,36.18
2022-11-02T16:23:30.333Z,36.19
2022-11-02T16:25:57.605Z,36.30
2022-11-02T16:28:25.453Z,36.22
2022-11-02T16:31:15.774Z,36.50
2022-11-02T16:33:44.681Z,36.34
2022-11-02T16:36:12.234Z,36.48
2022-11-02T16:38:38.977Z,36.43
2022-11-02T16:41:10.331Z,36.41
2022-11-02T16:43:37.885Z,36.63
2022-11-02T16:46:07.021Z,36.74
2022-11-02T16:48:33.607Z,36.73
2022-11-02T16:51:01.237Z,36.65
2022-11-02T16:53:31.676Z,36.91
2022-11-02T16:56:18.195Z,36.88
2022-11-02T16:58:49.700Z,36.65
2022-11-02T17:01:20.958Z,36.80
2022-11-02T17:03:47.671Z,36.95
2022-11-02T17:06:14.267Z,36.94
2022-11-02T17:08:41.520Z,36.92
2022-11-02T17:11:13.382Z,36.76
2022-11-02T17:13:44.573Z,36.90
2022-11-02T17:16:11.471Z,37.35
2022-11-02T17:18:39.062Z,37.19
2022-11-02T17:21:19.822Z,36.87
2022-11-02T17:23:47.187Z,36.82
2022-11-02T17:26:22.389Z,37.40
2022-11-02T17:28:49.736Z,37.01
2022-11-02T17:31:17.523Z,36.95
2022-11-02T17:33:44.001Z,37.09
2022-11-02T17:36:10.235Z,36.98
2022-11-02T17:38:36.724Z,37.13
2022-11-02T17:41:23.437Z,37.07
2022-11-02T17:43:49.723Z,37.10
2022-11-02T17:46:16.132Z,37.12
2022-11-02T17:48:42.442Z,37.17
2022-11-02T17:51:10.798Z,37.09
2022-11-02T17:53:37.145Z,37.25
2022-11-02T17:56:03.469Z,37.40
2022-11-02T17:58:30.139Z,37.44
2022-11-02T18:00:56.557Z,37.33
2022-11-02T18:03:25.554Z,37.22
2022-11-02T18:05:59.890Z,37.15
2022-11-02T18:08:26.673Z,37.51
2022-11-02T18:10:53.213Z,37.44
2022-11-02T18:13:20.528Z,37.37
2022-11-02T18:15:47.226Z,37.30
2022-11-02T18:18:13.542Z,37.42
2022-11-02T18:20:42.092Z,37.38
2022-11-02T18:23:14.451Z,37.47
2022-11-02T18:25:40.723Z,37.25
2022-11-02T18:28:07.300Z,37.43
2022-11-02T18:30:33.804Z,37.47
2022-11-02T18:33:00.575Z,37.59
2022-11-02T18:35:27.294Z,37.50
2022-11-02T18:37:53.762Z,37.38
2022-11-02T18:40:20.592Z,37.20
2022-11-02T18:42:47.286Z,37.12
2022-11-02T18:45:14.723Z,37.39
2022-11-02T18:47:41.903Z,37.35
2022-11-02T18:50:09.722Z,37.58
2022-11-02T18:52:36.143Z,37.15
2022-11-02T18:55:03.492Z,37.21
2022-11-02T18:57:30.451Z,37.45
2022-11-02T18:59:56.979Z,37.65
2022-11-02T19:02:23.504Z,37.57
2022-11-02T19:04:49.847Z,37.43
2022-11-02T19:07:35.566Z,37.16
2022-11-02T19:10:04.037Z,37.43
2022-11-02T19:12:31.039Z,37.25
2022-11-02T19:14:57.790Z,37.09
2022-11-02T19:17:25.039Z,37.64
2022-11-02T19:19:51.712Z,37.25
2022-11-02T19:22:19.169Z,37.47
2022-11-02T19:24:45.438Z,37.48
2022-11-02T19:27:13.162Z,37.58
2022-11-02T19:29:39.399Z,37.60
2022-11-02T19:32:05.700Z,37.29
2022-11-02T19:34:33.713Z,37.43
2022-11-02T19:37:01.223Z,37.59
2022-11-02T19:39:27.591Z,37.71
2022-11-02T19:41:54.270Z,37.27
2022-11-02T19:44:21.240Z,37.49
2022-11-02T19:46:47.533Z,37.86
2022-11-02T19:49:13.987Z,37.28
2022-11-02T19:51:40.668Z,37.42
2022-11-02T19:54:06.936Z,37.80
2022-11-02T19:56:34.686Z,37.32
2022-11-02T19:59:01.900Z,37.47
2022-11-02T20:01:29.335Z,37.35
2022-11-02T20:03:56.900Z,37.36
2022-11-02T20:06:24.474Z,37.64
2022-11-02T20:08:54.923Z,37.67
2022-11-02T20:11:21.709Z,37.67
2022-11-02T20:13:48.403Z,37.96
2022-11-02T20:16:15.971Z,37.69
2022-11-02T20:18:43.096Z,37.73
2022-11-02T20:21:12.324Z,37.99
2022-11-02T20:23:40.132Z,37.63
2022-11-02T20:26:08.126Z,38.03
2022-11-02T20:28:39.242Z,37.75
2022-11-02T20:31:07.944Z,37.86
2022-11-02T20:33:35.086Z,37.84
2022-11-02T20:36:01.350Z,38.12
2022-11-02T20:38:27.605Z,38.01
2022-11-02T20:40:54.512Z,37.93
2022-11-02T20:43:20.936Z,38.34
2022-11-02T20:45:47.183Z,38.01
2022-11-02T20:48:13.579Z,38.33
2022-11-02T20:50:39.929Z,38.36
2022-11-02T20:53:06.712Z,38.04
2022-11-02T20:55:33.398Z,37.92
2022-11-02T20:57:59.668Z,38.12
2022-11-02T21:00:26.076Z,37.93
2022-11-02T21:02:52.360Z,38.32
2022-11-02T21:05:18.714Z,38.16
2022-11-02T21:07:45.048Z,37.80
2022-11-02T21:10:11.334Z,37.85
2022-11-02T21:12:56.489Z,37.93
2022-11-02T21:15:22.810Z,38.01
2022-11-02T21:17:49.055Z,37.92
2022-11-02T21:23:05.975Z,38.09
2022-11-02T21:25:33.133Z,38.32
2022-11-02T21:27:59.899Z,37.87
2022-11-02T21:30:26.942Z,37.78
2022-11-02T21:32:53.566Z,38.06
2022-11-02T21:35:20.593Z,38.17
2022-11-02T21:37:49.579Z,37.96
2022-11-02T21:40:17.029Z,38.17
2022-11-02T21:42:43.368Z,38.05
2022-11-02T21:45:09.693Z,38.19
2022-11-02T21:47:36.113Z,38.00
2022-11-02T21:50:04.286Z,38.31
2022-11-02T21:52:30.589Z,38.19
2022-11-02T21:54:56.936Z,37.98
2022-11-02T21:57:23.185Z,38.35
2022-11-02T21:59:49.514Z,37.80
2022-11-02T22:02:17.505Z,37.94
2022-11-02T22:04:44.149Z,38.12
2022-11-02T22:07:10.836Z,38.13
2022-11-02T22:09:37.058Z,38.33
2022-11-02T22:12:22.150Z,38.25
2022-11-02T22:14:48.660Z,38.10
2022-11-02T22:17:22.180Z,38.08
2022-11-02T22:20:01.383Z,38.21
2022-11-02T22:22:27.618Z,37.93
2022-11-02T22:24:53.903Z,37.88
2022-11-02T22:27:20.126Z,38.03
2022-11-02T22:29:47.063Z,38.19
2022-11-02T22:32:14.511Z,38.17
2022-11-02T22:34:43.657Z,38.12
2022-11-02T22:37:28.317Z,38.10
2022-11-02T22:39:54.631Z,37.87
2022-11-02T22:42:20.885Z,38.06
2022-11-02T22:44:47.534Z,38.29
2022-11-02T22:47:14.049Z,38.07
2022-11-02T22:49:40.323Z,37.83
2022-11-02T22:52:07.152Z,38.05
2022-11-02T22:54:33.381Z,38.17
2022-11-02T22:56:59.610Z,38.10
2022-11-02T22:59:25.842Z,37.78
2022-11-02T23:01:52.240Z,37.91
2022-11-02T23:04:18.627Z,38.27
2022-11-02T23:06:45.896Z,37.87
2022-11-02T23:09:12.227Z,38.33
2022-11-02T23:11:38.897Z,38.14
2022-11-02T23:14:10.892Z,38.12
2022-11-02T23:16:38.455Z,38.05
2022-11-02T23:19:31.662Z,38.38
2022-11-02T23:22:22.647Z,38.38
2022-11-02T23:25:11.063Z,38.09
2022-11-02T23:27:58.579Z,38.09
2022-11-02T23:30:44.178Z,38.35
2022-11-02T23:33:10.519Z,38.21
2022-11-02T23:35:55.671Z,38.07
2022-11-02T23:38:22.202Z,38.13
2022-11-02T23:40:48.418Z,38.23
2022-11-02T23:43:14.895Z,38.03
2022-11-02T23:45:42.654Z,38.07
2022-11-02T23:48:09.345Z,38.52
2022-11-02T23:50:54.320Z,38.53
2022-11-02T23:53:41.951Z,38.33
2022-11-02T23:56:32.764Z,37.97
2022-11-02T23:59:08.263Z,38.23
